Houston, Texas
Traffic Map
Current Weather Conditions
Houston, Texas
Scattered Clouds
Scattered Clouds
78°
Feels Like: 80°
Wind Chill: 78° Ceiling: Unl
Heat Index: 80° Visibility: 10mi
Dew Point: 72° Wind: 7mph
Humidity: 81% Direction: 160° (SSE)
Pressure: 29.93in Gusts: 0mph
Raw Report DataKIAH 311353Z 16006KT 10SM FEW012 SCT250 26/22 A2993 RMK AO2 SLP134 T02560222
Traffic Incident Summary
Active as of:
Severity:
Category:
InformationThere was an issue retrieving the traffic information for this location. Please try a different location or try again shortly.
Advertisements
Track Severe Weather on mobile